createdAt,value
2023-03-17T00:01:54.407Z,61.90
2023-03-17T00:04:24.220Z,61.33
2023-03-17T00:06:53.337Z,61.57
2023-03-17T00:09:22.734Z,62.66
2023-03-17T00:11:51.368Z,62.75
2023-03-17T00:14:20.608Z,62.99
2023-03-17T00:16:52.667Z,63.12
2023-03-17T00:19:27.305Z,62.17
2023-03-17T00:21:56.133Z,62.92
2023-03-17T00:24:24.945Z,63.08
2023-03-17T00:26:53.389Z,63.89
2023-03-17T00:29:21.807Z,64.22
2023-03-17T00:31:51.928Z,63.61
2023-03-17T00:34:20.655Z,63.92
2023-03-17T00:36:51.108Z,63.92
2023-03-17T00:39:20.743Z,64.62
2023-03-17T00:41:49.243Z,64.86
2023-03-17T00:44:18.447Z,65.24
2023-03-17T00:46:47.089Z,65.07
2023-03-17T00:49:19.340Z,65.18
2023-03-17T00:51:48.774Z,64.92
2023-03-17T00:54:18.281Z,65.35
2023-03-17T00:56:47.976Z,64.94
2023-03-17T00:59:21.854Z,65.02
2023-03-17T01:01:51.145Z,64.58
2023-03-17T01:04:21.260Z,64.60
2023-03-17T01:06:51.334Z,65.73
2023-03-17T01:09:21.168Z,66.39
2023-03-17T01:11:49.602Z,65.92
2023-03-17T01:14:18.231Z,65.56
2023-03-17T01:16:47.699Z,65.44
2023-03-17T01:19:16.789Z,66.05
2023-03-17T01:21:48.116Z,65.83
2023-03-17T01:24:17.758Z,66.31
2023-03-17T01:26:46.201Z,66.12
2023-03-17T01:29:14.584Z,66.87
2023-03-17T01:31:43.056Z,67.31
2023-03-17T01:34:11.686Z,66.97
2023-03-17T01:36:41.337Z,67.30
2023-03-17T01:39:11.308Z,67.50
2023-03-17T01:41:40.479Z,67.31
2023-03-17T01:44:15.798Z,67.06
2023-03-17T01:46:45.538Z,67.68
2023-03-17T01:49:19.356Z,68.12
2023-03-17T01:52:06.043Z,67.85
2023-03-17T01:54:40.871Z,68.33
2023-03-17T01:57:13.885Z,68.72
2023-03-17T01:59:45.610Z,69.03
2023-03-17T02:02:18.239Z,69.39
2023-03-17T02:04:46.715Z,68.70
2023-03-17T02:07:15.414Z,69.97
2023-03-17T02:09:46.133Z,70.65
2023-03-17T02:12:15.537Z,69.61
2023-03-17T02:14:44.156Z,70.21
2023-03-17T02:17:12.918Z,70.01
2023-03-17T02:19:41.961Z,70.10
2023-03-17T02:22:12.591Z,70.05
2023-03-17T02:24:44.480Z,69.88
2023-03-17T02:27:18.632Z,70.55
2023-03-17T02:29:47.501Z,70.29
2023-03-17T02:32:18.711Z,70.75
2023-03-17T02:34:49.606Z,70.69
2023-03-17T02:37:19.881Z,70.01
2023-03-17T02:39:48.611Z,70.36
2023-03-17T02:42:16.991Z,69.52
2023-03-17T02:44:45.446Z,69.89
2023-03-17T02:47:14.319Z,70.89
2023-03-17T02:49:44.076Z,70.44
2023-03-17T02:52:13.253Z,70.56
2023-03-17T02:54:43.072Z,70.79
2023-03-17T02:57:11.697Z,69.61
2023-03-17T02:59:40.281Z,70.32
2023-03-17T03:02:08.928Z,69.58
2023-03-17T03:04:37.661Z,68.54
2023-03-17T03:07:06.385Z,68.41
2023-03-17T03:09:35.236Z,68.12
2023-03-17T03:12:05.621Z,68.91
2023-03-17T03:14:34.022Z,68.17
2023-03-17T03:17:02.534Z,68.91
2023-03-17T03:19:30.999Z,68.16
2023-03-17T03:21:59.581Z,68.82
2023-03-17T03:24:28.016Z,69.22
2023-03-17T03:26:56.464Z,68.94
2023-03-17T03:29:26.337Z,68.30
2023-03-17T03:31:54.765Z,69.09
2023-03-17T03:34:23.164Z,67.75
2023-03-17T03:36:51.673Z,68.88
2023-03-17T03:39:20.049Z,68.50
2023-03-17T03:41:48.487Z,67.38
2023-03-17T03:44:16.858Z,67.22
2023-03-17T03:46:46.682Z,67.66
2023-03-17T03:49:15.103Z,67.86
2023-03-17T03:51:43.516Z,67.92
2023-03-17T03:54:11.966Z,68.21
2023-03-17T03:56:40.383Z,67.99
2023-03-17T03:59:09.749Z,67.97
2023-03-17T04:01:38.787Z,67.85
2023-03-17T04:04:08.630Z,67.80
2023-03-17T04:06:37.028Z,67.91
2023-03-17T04:09:05.604Z,68.00
2023-03-17T04:11:33.993Z,67.55
2023-03-17T04:14:02.660Z,67.76
2023-03-17T04:16:31.093Z,67.96
2023-03-17T04:18:59.567Z,67.92
2023-03-17T04:21:29.330Z,68.89
2023-03-17T04:23:57.703Z,68.65
2023-03-17T04:26:26.338Z,67.90
2023-03-17T04:28:54.706Z,66.81
2023-03-17T04:31:23.211Z,67.64
2023-03-17T04:33:51.885Z,67.82
2023-03-17T04:36:21.735Z,67.54
2023-03-17T04:38:51.884Z,68.00
2023-03-17T04:41:21.221Z,67.36
2023-03-17T04:43:50.736Z,67.10
2023-03-17T04:46:19.085Z,67.87
2023-03-17T04:48:47.456Z,67.79
2023-03-17T04:51:17.097Z,68.29
2023-03-17T04:53:45.877Z,67.67
2023-03-17T04:56:16.193Z,67.96
2023-03-17T04:58:44.784Z,67.92
2023-03-17T05:01:13.232Z,67.13
2023-03-17T05:03:41.867Z,66.96
2023-03-17T05:06:10.410Z,67.34
2023-03-17T05:08:38.781Z,67.54
2023-03-17T05:11:07.451Z,66.73
2023-03-17T05:13:37.240Z,68.12
2023-03-17T05:16:06.084Z,67.23
2023-03-17T05:18:35.011Z,66.36
2023-03-17T05:21:03.394Z,66.22
2023-03-17T05:23:32.019Z,66.64
2023-03-17T05:26:00.442Z,65.92
2023-03-17T05:28:29.016Z,66.66
2023-03-17T05:30:58.863Z,66.58
2023-03-17T05:33:27.678Z,65.78
2023-03-17T05:35:56.221Z,64.77
2023-03-17T05:38:25.087Z,64.65
2023-03-17T05:40:53.741Z,65.71
2023-03-17T05:43:22.754Z,65.87
2023-03-17T05:45:51.538Z,64.90
2023-03-17T05:48:21.337Z,65.38
2023-03-17T05:50:49.898Z,64.90
2023-03-17T05:53:18.725Z,64.74
2023-03-17T05:55:47.795Z,64.40
2023-03-17T05:58:17.053Z,64.33
2023-03-17T06:00:46.317Z,65.43
2023-03-17T06:03:15.276Z,64.70
2023-03-17T06:05:45.118Z,63.19
2023-03-17T06:08:13.924Z,63.46
2023-03-17T06:10:43.106Z,63.49
2023-03-17T06:13:11.895Z,63.08
2023-03-17T06:15:42.141Z,63.61
2023-03-17T06:18:10.762Z,63.29
2023-03-17T06:20:39.203Z,63.08
2023-03-17T06:23:08.948Z,62.56
2023-03-17T06:25:37.646Z,62.39
2023-03-17T06:28:06.694Z,63.16
2023-03-17T06:30:38.157Z,62.84
2023-03-17T06:33:08.783Z,62.43
2023-03-17T06:35:37.706Z,61.91
2023-03-17T06:38:06.121Z,61.81
2023-03-17T06:40:35.956Z,61.99
2023-03-17T06:43:04.727Z,62.16
2023-03-17T06:45:33.867Z,62.38
2023-03-17T06:48:02.745Z,62.32
2023-03-17T06:50:31.276Z,62.63
2023-03-17T06:52:59.673Z,62.81
2023-03-17T06:55:29.068Z,62.69
2023-03-17T06:58:00.451Z,62.15
2023-03-17T07:00:30.339Z,61.20
2023-03-17T07:02:58.890Z,61.38
2023-03-17T07:05:28.124Z,61.24
2023-03-17T07:07:56.573Z,60.25
2023-03-17T07:10:25.498Z,60.40
2023-03-17T07:12:53.992Z,60.07
2023-03-17T07:15:24.080Z,59.89
2023-03-17T07:17:52.628Z,59.78
2023-03-17T07:20:21.643Z,59.51
2023-03-17T07:22:50.045Z,59.57
2023-03-17T07:25:18.751Z,59.86
2023-03-17T07:27:47.290Z,59.28
2023-03-17T07:30:19.067Z,58.89
2023-03-17T07:32:49.437Z,58.02
2023-03-17T07:35:19.387Z,58.15
2023-03-17T07:37:48.277Z,58.71
2023-03-17T07:40:18.434Z,58.34
2023-03-17T07:42:47.027Z,57.86
2023-03-17T07:45:15.471Z,57.67
2023-03-17T07:47:43.959Z,57.62
2023-03-17T07:50:14.338Z,57.07
2023-03-17T07:52:43.240Z,56.26
2023-03-17T07:55:12.590Z,56.21
2023-03-17T07:57:41.526Z,56.13
2023-03-17T08:00:13.616Z,54.92
2023-03-17T08:02:42.621Z,56.24
2023-03-17T08:05:14.273Z,55.16
2023-03-17T08:07:43.466Z,55.46
2023-03-17T08:10:14.094Z,54.58
2023-03-17T08:12:43.051Z,52.93
2023-03-17T08:15:13.135Z,52.99
2023-03-17T08:17:41.987Z,52.74
2023-03-17T08:20:12.064Z,52.39
2023-03-17T08:22:42.027Z,51.82
2023-03-17T08:25:11.620Z,51.53
2023-03-17T08:27:40.642Z,51.88
2023-03-17T08:30:10.362Z,50.93
2023-03-17T08:32:38.818Z,50.93
2023-03-17T08:35:07.838Z,51.51
2023-03-17T08:37:37.938Z,50.99
2023-03-17T08:40:10.025Z,51.70
2023-03-17T08:42:38.710Z,51.87
2023-03-17T08:45:07.997Z,51.73
2023-03-17T08:47:36.776Z,51.34
2023-03-17T08:50:07.198Z,51.19
2023-03-17T08:52:36.863Z,51.53
2023-03-17T08:55:08.908Z,49.73
2023-03-17T08:57:38.010Z,50.18
2023-03-17T09:00:11.121Z,50.54
2023-03-17T09:02:40.429Z,50.01
2023-03-17T09:05:10.187Z,51.11
2023-03-17T09:07:38.897Z,50.21
2023-03-17T09:10:10.940Z,50.56
2023-03-17T09:12:39.737Z,50.92
2023-03-17T09:15:10.298Z,50.22
2023-03-17T09:17:38.847Z,50.54
2023-03-17T09:20:08.419Z,49.28
2023-03-17T09:22:36.818Z,49.23
2023-03-17T09:25:05.879Z,49.31
2023-03-17T09:27:36.385Z,49.01
2023-03-17T09:30:05.231Z,49.85
2023-03-17T09:32:33.837Z,48.90
2023-03-17T09:35:03.881Z,48.06
2023-03-17T09:37:32.493Z,47.43
2023-03-17T09:40:02.269Z,47.42
2023-03-17T09:42:43.294Z,48.60
2023-03-17T09:45:25.209Z,46.77
2023-03-17T09:48:12.880Z,47.01
2023-03-17T09:50:48.115Z,48.76
2023-03-17T09:53:21.377Z,48.42
2023-03-17T09:55:53.922Z,45.41
2023-03-17T09:58:30.081Z,45.11
2023-03-17T10:00:59.776Z,46.46
2023-03-17T10:03:28.506Z,46.57
2023-03-17T10:06:10.463Z,46.80
2023-03-17T10:08:48.909Z,43.75
2023-03-17T10:11:27.972Z,46.14
2023-03-17T10:14:01.886Z,44.56
2023-03-17T10:16:38.219Z,43.91
2023-03-17T10:19:17.498Z,43.55
2023-03-17T10:21:53.455Z,43.64
2023-03-17T10:24:22.841Z,43.34
2023-03-17T10:26:53.344Z,42.49
2023-03-17T10:29:24.869Z,42.33
2023-03-17T10:31:58.323Z,42.21
2023-03-17T10:34:29.766Z,42.26
2023-03-17T10:37:02.905Z,41.74
2023-03-17T10:39:32.874Z,41.10
2023-03-17T10:42:10.091Z,41.32
2023-03-17T10:44:49.640Z,40.62
2023-03-17T10:47:25.749Z,40.54
2023-03-17T10:49:55.698Z,39.60
2023-03-17T10:52:28.622Z,40.20
2023-03-17T10:55:02.028Z,39.36
2023-03-17T10:57:31.212Z,40.23
2023-03-17T11:00:02.484Z,39.89
2023-03-17T11:02:37.008Z,40.65
2023-03-17T11:05:06.773Z,40.21
2023-03-17T11:07:38.145Z,39.64
2023-03-17T11:10:18.528Z,40.88
2023-03-17T11:12:50.202Z,38.93
2023-03-17T11:15:20.400Z,38.53
2023-03-17T11:17:59.098Z,38.76
2023-03-17T11:20:50.032Z,38.80
2023-03-17T11:23:31.706Z,38.38
2023-03-17T11:26:10.482Z,38.83
2023-03-17T11:28:42.830Z,38.81
2023-03-17T11:31:20.846Z,38.25
2023-03-17T11:33:58.162Z,40.14
2023-03-17T11:36:39.958Z,38.04
2023-03-17T11:39:16.168Z,38.79
2023-03-17T11:41:56.177Z,38.04
2023-03-17T11:44:42.983Z,38.14
2023-03-17T11:47:20.617Z,37.93
2023-03-17T11:49:59.042Z,37.51
2023-03-17T11:52:34.302Z,37.78
2023-03-17T11:55:13.552Z,37.04
2023-03-17T11:57:48.560Z,36.97
2023-03-17T12:00:22.716Z,37.56
2023-03-17T12:02:56.357Z,37.04
2023-03-17T12:05:27.222Z,37.28
2023-03-17T12:07:59.547Z,37.72
2023-03-17T12:10:34.489Z,36.48
2023-03-17T12:13:08.145Z,35.99
2023-03-17T12:15:40.969Z,36.31
2023-03-17T12:18:18.308Z,36.02
2023-03-17T12:20:52.973Z,36.38
2023-03-17T12:23:30.051Z,36.00
2023-03-17T12:26:03.842Z,35.93
2023-03-17T12:28:39.554Z,37.09
2023-03-17T12:31:12.633Z,36.98
2023-03-17T12:33:49.324Z,37.35
2023-03-17T12:36:19.487Z,36.04
2023-03-17T12:38:53.799Z,36.64
2023-03-17T12:41:28.690Z,37.03
2023-03-17T12:44:06.265Z,36.59
2023-03-17T12:47:05.478Z,36.77
2023-03-17T12:50:13.698Z,36.00
2023-03-17T12:52:56.843Z,35.61
2023-03-17T12:55:28.146Z,35.74
2023-03-17T12:58:03.360Z,36.89
2023-03-17T13:00:35.401Z,36.51
2023-03-17T13:03:20.347Z,36.33
2023-03-17T13:05:53.946Z,37.23
2023-03-17T13:08:30.955Z,37.76
2023-03-17T13:11:17.891Z,36.48
2023-03-17T13:13:59.085Z,37.21
2023-03-17T13:16:32.068Z,36.77
2023-03-17T13:19:22.555Z,37.07
2023-03-17T13:22:14.276Z,36.73
2023-03-17T13:24:48.097Z,36.80
2023-03-17T13:27:43.917Z,37.32
2023-03-17T13:30:45.947Z,37.30
2023-03-17T13:33:29.819Z,36.22
2023-03-17T13:36:23.754Z,35.68
2023-03-17T13:39:25.813Z,36.82
2023-03-17T13:42:18.080Z,36.89
2023-03-17T13:45:10.233Z,36.42
2023-03-17T13:47:42.409Z,35.97
2023-03-17T13:50:16.551Z,36.06
2023-03-17T13:52:49.902Z,36.50
2023-03-17T13:55:38.108Z,35.99
2023-03-17T13:58:35.322Z,35.60
2023-03-17T14:01:09.182Z,36.04
2023-03-17T14:03:43.674Z,35.74
2023-03-17T14:06:14.534Z,36.75
2023-03-17T14:08:50.455Z,36.04
2023-03-17T14:11:27.960Z,36.16
2023-03-17T14:14:32.517Z,36.36
2023-03-17T14:17:06.389Z,36.58
2023-03-17T14:19:39.106Z,36.42
2023-03-17T14:22:22.030Z,36.47
2023-03-17T14:24:54.351Z,35.38
2023-03-17T14:27:25.917Z,36.09
2023-03-17T14:29:54.813Z,36.09
2023-03-17T14:32:26.463Z,37.67
2023-03-17T14:34:57.654Z,37.08
2023-03-17T14:37:28.157Z,36.62
2023-03-17T14:39:59.117Z,36.90
2023-03-17T14:42:30.816Z,36.51
2023-03-17T14:45:04.048Z,37.65
2023-03-17T14:47:37.990Z,37.06
2023-03-17T14:50:15.084Z,36.82
2023-03-17T14:52:43.889Z,36.21
2023-03-17T14:55:16.118Z,37.16
2023-03-17T14:57:51.100Z,36.37
2023-03-17T15:00:38.210Z,36.53
2023-03-17T15:03:20.537Z,37.93
2023-03-17T15:05:51.276Z,38.04
2023-03-17T15:08:46.142Z,37.50
2023-03-17T15:11:20.116Z,38.03
2023-03-17T15:13:51.812Z,37.69
2023-03-17T15:16:25.081Z,37.33
2023-03-17T15:19:04.303Z,37.24
2023-03-17T15:21:36.507Z,37.06
2023-03-17T15:24:23.626Z,38.16
2023-03-17T15:26:52.592Z,38.78
2023-03-17T15:29:22.790Z,39.47
2023-03-17T15:31:51.508Z,38.01
2023-03-17T15:34:20.909Z,37.38
2023-03-17T15:36:50.193Z,37.31
2023-03-17T15:39:19.029Z,37.66
2023-03-17T15:41:47.924Z,37.98
2023-03-17T15:44:16.655Z,38.30
2023-03-17T15:46:47.367Z,38.33
2023-03-17T15:49:16.068Z,37.87
2023-03-17T15:51:44.885Z,38.60
2023-03-17T15:54:16.232Z,39.78
2023-03-17T15:56:45.268Z,38.76
2023-03-17T15:59:14.239Z,38.18
2023-03-17T16:01:43.185Z,39.49
2023-03-17T16:04:13.892Z,40.28
2023-03-17T16:06:42.635Z,38.63
2023-03-17T16:09:16.818Z,38.11
2023-03-17T16:11:45.688Z,39.00
2023-03-17T16:14:14.429Z,39.56
2023-03-17T16:16:45.929Z,38.63
2023-03-17T16:19:20.533Z,39.10
2023-03-17T16:21:49.625Z,39.27
2023-03-17T16:24:20.526Z,39.20
2023-03-17T16:26:49.693Z,39.49
2023-03-17T16:29:19.758Z,40.08
2023-03-17T16:31:51.173Z,39.90
2023-03-17T16:34:23.199Z,39.31
2023-03-17T16:36:51.728Z,39.85
2023-03-17T16:39:23.496Z,40.66
2023-03-17T16:41:53.573Z,41.01
2023-03-17T16:44:23.575Z,40.22
2023-03-17T16:46:52.322Z,41.27
2023-03-17T16:49:23.821Z,40.53
2023-03-17T16:51:52.659Z,41.71
2023-03-17T16:54:21.330Z,40.52
2023-03-17T16:56:50.276Z,41.78
2023-03-17T16:59:21.953Z,41.95
2023-03-17T17:01:51.018Z,41.09
2023-03-17T17:04:19.728Z,41.43
2023-03-17T17:06:50.127Z,42.31
2023-03-17T17:09:18.856Z,41.85
2023-03-17T17:11:47.590Z,40.96
2023-03-17T17:14:16.766Z,42.53
2023-03-17T17:16:46.943Z,42.24
2023-03-17T17:19:17.303Z,42.53
2023-03-17T17:21:46.396Z,41.85
2023-03-17T17:24:16.834Z,41.17
2023-03-17T17:26:45.842Z,42.09
2023-03-17T17:29:14.717Z,41.94
2023-03-17T17:31:43.617Z,41.88
2023-03-17T17:34:12.479Z,42.37
2023-03-17T17:36:41.765Z,41.71
2023-03-17T17:39:11.515Z,42.23
2023-03-17T17:41:41.362Z,42.29
2023-03-17T17:44:09.810Z,43.27
2023-03-17T17:46:38.314Z,42.84
2023-03-17T17:49:07.195Z,42.00
2023-03-17T17:51:35.759Z,42.52
2023-03-17T17:54:04.265Z,43.63
2023-03-17T17:56:36.609Z,43.80
2023-03-17T17:59:06.612Z,43.41
2023-03-17T18:01:35.198Z,43.81
2023-03-17T18:04:03.770Z,43.97
2023-03-17T18:06:32.329Z,43.39
2023-03-17T18:09:00.816Z,43.84
2023-03-17T18:11:29.345Z,43.88
2023-03-17T18:13:58.110Z,43.96
2023-03-17T18:16:28.038Z,44.92
2023-03-17T18:18:57.689Z,43.63
2023-03-17T18:21:26.286Z,44.17
2023-03-17T18:23:55.370Z,44.94
2023-03-17T18:26:24.204Z,45.51
2023-03-17T18:28:53.420Z,45.55
2023-03-17T18:31:26.169Z,44.64
2023-03-17T18:34:00.874Z,45.09
2023-03-17T18:36:29.409Z,45.10
2023-03-17T18:38:57.849Z,44.28
2023-03-17T18:41:28.024Z,45.71
2023-03-17T18:43:56.453Z,45.64
2023-03-17T18:46:24.895Z,45.19
2023-03-17T18:48:53.425Z,45.88
2023-03-17T18:51:23.200Z,45.84
2023-03-17T18:53:51.798Z,46.26
2023-03-17T18:56:21.567Z,45.98
2023-03-17T18:58:50.089Z,47.13
2023-03-17T19:01:18.622Z,46.53
2023-03-17T19:03:47.094Z,46.49
2023-03-17T19:06:17.511Z,46.61
2023-03-17T19:08:48.096Z,46.60
2023-03-17T19:11:19.424Z,46.55
2023-03-17T19:13:48.003Z,47.10
2023-03-17T19:16:18.717Z,46.37
2023-03-17T19:18:47.496Z,46.65
2023-03-17T19:21:15.958Z,46.74
2023-03-17T19:23:44.926Z,47.19
2023-03-17T19:26:14.705Z,47.04
2023-03-17T19:28:43.335Z,47.30
2023-03-17T19:31:11.997Z,47.22
2023-03-17T19:33:40.950Z,47.13
2023-03-17T19:36:12.023Z,47.57
2023-03-17T19:38:41.121Z,48.27
2023-03-17T19:41:09.706Z,48.14
2023-03-17T19:43:41.470Z,47.67
2023-03-17T19:46:11.946Z,48.30
2023-03-17T19:48:40.977Z,47.38
2023-03-17T19:51:09.450Z,48.41
2023-03-17T19:53:38.460Z,48.60
2023-03-17T19:56:08.170Z,48.76
2023-03-17T19:58:36.706Z,48.73
2023-03-17T20:01:07.490Z,48.78
2023-03-17T20:03:39.356Z,48.81
2023-03-17T20:06:07.895Z,49.62
2023-03-17T20:08:37.000Z,49.22
2023-03-17T20:11:06.735Z,48.60
2023-03-17T20:13:36.253Z,49.25
2023-03-17T20:16:07.623Z,49.88
2023-03-17T20:18:36.371Z,49.92
2023-03-17T20:21:07.831Z,50.89
2023-03-17T20:23:37.770Z,50.28
2023-03-17T20:26:06.945Z,49.78
2023-03-17T20:28:35.734Z,49.22
2023-03-17T20:31:04.659Z,49.71
2023-03-17T20:33:34.967Z,50.32
2023-03-17T20:36:04.646Z,50.91
2023-03-17T20:38:36.973Z,51.33
2023-03-17T20:41:07.421Z,51.19
2023-03-17T20:43:37.573Z,51.25
2023-03-17T20:46:08.722Z,51.73
2023-03-17T20:48:39.472Z,52.80
2023-03-17T20:51:10.133Z,52.14
2023-03-17T20:53:38.878Z,51.72
2023-03-17T20:56:08.547Z,51.90
2023-03-17T20:58:37.071Z,51.95
2023-03-17T21:01:05.872Z,52.35
2023-03-17T21:03:34.515Z,52.29
2023-03-17T21:06:04.712Z,53.63
2023-03-17T21:08:33.919Z,53.24
2023-03-17T21:11:02.785Z,52.82
2023-03-17T21:13:33.017Z,53.36
2023-03-17T21:16:02.159Z,53.67
2023-03-17T21:18:30.871Z,53.64
2023-03-17T21:20:59.552Z,54.52
2023-03-17T21:23:29.450Z,54.73
2023-03-17T21:25:57.847Z,54.10
2023-03-17T21:28:26.393Z,55.21
2023-03-17T21:30:54.805Z,56.32
2023-03-17T21:33:23.239Z,54.45
2023-03-17T21:35:52.259Z,55.99
2023-03-17T21:38:20.758Z,55.36
2023-03-17T21:40:51.664Z,55.94
2023-03-17T21:43:20.145Z,56.03
2023-03-17T21:45:49.320Z,56.56
2023-03-17T21:48:18.432Z,57.96
2023-03-17T21:50:48.867Z,57.81
2023-03-17T21:53:17.352Z,58.50
2023-03-17T21:55:45.985Z,57.82
2023-03-17T21:58:15.908Z,58.34
2023-03-17T22:00:45.981Z,58.54
2023-03-17T22:03:14.873Z,58.39
2023-03-17T22:05:44.051Z,57.64
2023-03-17T22:08:13.092Z,58.90
2023-03-17T22:10:41.681Z,59.29
2023-03-17T22:13:10.108Z,59.09
2023-03-17T22:15:39.929Z,57.42
2023-03-17T22:18:09.529Z,58.05
2023-03-17T22:20:37.976Z,56.86
2023-03-17T22:23:06.417Z,57.56
2023-03-17T22:25:34.863Z,57.55
2023-03-17T22:28:03.359Z,58.41
2023-03-17T22:30:31.954Z,57.66
2023-03-17T22:33:01.966Z,58.02
2023-03-17T22:35:30.854Z,58.41
2023-03-17T22:37:59.576Z,58.49
2023-03-17T22:40:28.054Z,57.18
2023-03-17T22:42:57.214Z,56.65
2023-03-17T22:45:26.538Z,58.15
2023-03-17T22:47:56.037Z,57.89
2023-03-17T22:50:26.054Z,58.56
2023-03-17T22:52:54.466Z,59.19
2023-03-17T22:55:23.249Z,57.66
2023-03-17T22:57:51.762Z,58.29
2023-03-17T23:00:20.495Z,57.31
2023-03-17T23:02:49.166Z,57.08
2023-03-17T23:05:17.735Z,57.00
2023-03-17T23:07:50.652Z,57.85
2023-03-17T23:10:24.515Z,57.99
2023-03-17T23:12:53.166Z,58.69
2023-03-17T23:15:22.277Z,58.70
2023-03-17T23:17:50.875Z,58.59
2023-03-17T23:20:19.402Z,57.29
2023-03-17T23:22:49.389Z,57.98
2023-03-17T23:25:18.270Z,58.83
2023-03-17T23:27:47.173Z,58.22
2023-03-17T23:30:17.904Z,58.20
2023-03-17T23:32:46.814Z,57.87
2023-03-17T23:35:15.397Z,58.64
2023-03-17T23:37:43.827Z,58.61
2023-03-17T23:40:15.593Z,58.00
2023-03-17T23:42:44.610Z,59.13
2023-03-17T23:45:15.401Z,58.49
2023-03-17T23:47:44.233Z,58.70
2023-03-17T23:50:14.367Z,58.26
2023-03-17T23:52:43.525Z,57.78
2023-03-17T23:55:13.648Z,57.47
2023-03-17T23:57:42.073Z,57.83
